createdAt,value
2018-05-27T00:00:52.343Z,21.05
2018-05-27T00:03:22.433Z,21.00
2018-05-27T00:05:52.547Z,20.80
2018-05-27T00:08:22.643Z,20.71
2018-05-27T00:10:53.093Z,21.02
2018-05-27T00:13:23.326Z,21.01
2018-05-27T00:15:53.879Z,20.91
2018-05-27T00:18:23.977Z,20.91
2018-05-27T00:20:54.069Z,20.84
2018-05-27T00:23:24.723Z,20.86
2018-05-27T00:25:55.051Z,20.90
2018-05-27T00:28:25.527Z,20.88
2018-05-27T00:30:55.705Z,20.85
2018-05-27T00:33:26.083Z,21.00
2018-05-27T00:35:56.175Z,20.94
2018-05-27T00:38:26.265Z,21.05
2018-05-27T00:40:56.434Z,21.11
2018-05-27T00:43:26.522Z,21.06
2018-05-27T00:45:57.016Z,21.03
2018-05-27T00:48:27.117Z,20.97
2018-05-27T00:50:56.876Z,20.88
2018-05-27T00:53:44.438Z,20.76
2018-05-27T00:56:14.535Z,20.68
2018-05-27T00:58:44.909Z,20.66
2018-05-27T01:01:14.967Z,20.77
2018-05-27T01:03:45.449Z,20.52
2018-05-27T01:06:15.577Z,20.49
2018-05-27T01:08:45.663Z,20.52
2018-05-27T01:11:15.818Z,20.44
2018-05-27T01:13:46.293Z,20.37
2018-05-27T01:16:16.779Z,20.45
2018-05-27T01:18:47.191Z,20.65
2018-05-27T01:21:17.292Z,20.62
2018-05-27T01:23:47.402Z,20.40
2018-05-27T01:26:17.489Z,20.55
2018-05-27T01:28:47.727Z,20.13
2018-05-27T01:31:18.235Z,19.89
2018-05-27T01:33:48.325Z,19.83
2018-05-27T01:36:18.405Z,19.69
2018-05-27T01:38:49.109Z,19.70
2018-05-27T01:41:18.949Z,19.72
2018-05-27T01:43:49.445Z,19.78
2018-05-27T01:46:19.507Z,19.83
2018-05-27T01:48:49.595Z,19.78
2018-05-27T01:51:19.696Z,19.81
2018-05-27T01:53:49.798Z,19.86
2018-05-27T01:56:19.902Z,19.87
2018-05-27T01:58:50.096Z,19.99
2018-05-27T02:01:20.578Z,20.26
2018-05-27T02:03:50.652Z,20.17
2018-05-27T02:06:20.760Z,19.95
2018-05-27T02:08:51.257Z,19.90
2018-05-27T02:11:21.365Z,19.90
2018-05-27T02:13:51.452Z,20.01
2018-05-27T02:16:21.544Z,19.99
2018-05-27T02:18:51.696Z,19.86
2018-05-27T02:21:21.806Z,19.88
2018-05-27T02:23:51.988Z,19.79
2018-05-27T02:26:22.122Z,19.74
2018-05-27T02:28:52.640Z,19.61
2018-05-27T02:31:22.746Z,19.59
2018-05-27T02:33:52.708Z,19.66
2018-05-27T02:36:22.800Z,19.55
2018-05-27T02:38:52.906Z,19.49
2018-05-27T02:41:23.310Z,19.54
2018-05-27T02:43:53.394Z,19.79
2018-05-27T02:46:23.516Z,19.75
2018-05-27T02:48:53.630Z,19.60
2018-05-27T02:51:23.702Z,19.42
2018-05-27T02:53:53.986Z,19.41
2018-05-27T02:56:24.296Z,19.42
2018-05-27T02:58:54.384Z,19.44
2018-05-27T03:01:24.489Z,19.45
2018-05-27T03:03:54.566Z,19.42
2018-05-27T03:06:24.115Z,19.36
2018-05-27T03:08:54.207Z,19.35
2018-05-27T03:11:24.166Z,19.32
2018-05-27T03:13:53.736Z,19.23
2018-05-27T03:16:23.674Z,19.18
2018-05-27T03:18:53.202Z,19.20
2018-05-27T03:21:22.717Z,19.13
2018-05-27T03:23:52.270Z,19.16
2018-05-27T03:26:22.196Z,18.98
2018-05-27T03:28:52.776Z,18.90
2018-05-27T03:31:22.314Z,18.87
2018-05-27T03:33:52.271Z,18.89
2018-05-27T03:36:21.824Z,18.84
2018-05-27T03:38:51.569Z,18.82
2018-05-27T03:41:21.364Z,18.86
2018-05-27T03:43:51.334Z,18.82
2018-05-27T03:46:20.880Z,18.83
2018-05-27T03:48:50.833Z,18.85
2018-05-27T03:51:20.365Z,18.89
2018-05-27T03:53:49.928Z,19.04
2018-05-27T03:56:19.902Z,18.90
2018-05-27T03:58:51.496Z,18.82
2018-05-27T04:01:21.428Z,18.86
2018-05-27T04:07:20.877Z,18.86
2018-05-27T04:09:50.393Z,19.00
2018-05-27T04:12:19.979Z,18.97
2018-05-27T04:14:49.515Z,18.80
2018-05-27T04:17:19.033Z,18.84
2018-05-27T04:19:48.576Z,18.94
2018-05-27T04:22:18.494Z,19.07
2018-05-27T04:24:47.722Z,19.06
2018-05-27T04:27:17.232Z,18.73
2018-05-27T04:29:46.812Z,18.07
2018-05-27T04:32:16.336Z,17.81
2018-05-27T04:34:45.854Z,17.70
2018-05-27T04:37:15.375Z,17.96
2018-05-27T04:39:45.027Z,18.15
2018-05-27T04:42:14.944Z,18.45
2018-05-27T04:44:44.450Z,18.76
2018-05-27T04:47:14.386Z,18.90
2018-05-27T04:49:43.912Z,18.75
2018-05-27T04:52:13.439Z,18.64
2018-05-27T04:54:42.958Z,18.59
2018-05-27T04:57:12.486Z,19.10
2018-05-27T04:59:42.412Z,19.74
2018-05-27T05:02:11.944Z,20.09
2018-05-27T05:04:41.470Z,20.34
2018-05-27T05:07:12.277Z,20.62
2018-05-27T05:09:42.346Z,21.07
2018-05-27T05:12:12.428Z,21.28
2018-05-27T05:14:42.928Z,21.77
2018-05-27T05:17:13.022Z,21.93
2018-05-27T05:19:43.117Z,21.78
2018-05-27T05:22:13.318Z,21.74
2018-05-27T05:24:43.920Z,21.79
2018-05-27T05:27:14.021Z,21.81
2018-05-27T05:29:44.128Z,21.71
2018-05-27T05:32:14.970Z,21.88
2018-05-27T05:34:45.055Z,22.15
2018-05-27T05:37:15.942Z,22.38
2018-05-27T05:39:46.027Z,22.77
2018-05-27T05:42:16.107Z,23.46
2018-05-27T05:44:46.186Z,24.04
2018-05-27T05:47:16.275Z,24.50
2018-05-27T05:49:46.756Z,24.76
2018-05-27T05:52:16.842Z,24.61
2018-05-27T05:54:46.923Z,24.02
2018-05-27T05:57:17.015Z,23.63
2018-05-27T05:59:54.532Z,23.23
2018-05-27T06:02:24.619Z,22.69
2018-05-27T06:04:54.680Z,22.37
2018-05-27T06:07:24.763Z,22.10
2018-05-27T06:09:54.843Z,22.03
2018-05-27T06:12:24.931Z,21.97
2018-05-27T06:14:55.201Z,21.74
2018-05-27T06:17:25.287Z,21.59
2018-05-27T06:19:56.061Z,21.68
2018-05-27T06:22:26.160Z,21.73
2018-05-27T06:24:55.917Z,22.05
2018-05-27T06:27:26.049Z,22.03
2018-05-27T06:29:56.212Z,22.47
2018-05-27T06:32:26.359Z,22.63
2018-05-27T06:34:56.491Z,22.29
2018-05-27T06:37:26.582Z,22.54
2018-05-27T06:39:56.863Z,22.73
2018-05-27T06:42:26.978Z,22.83
2018-05-27T06:44:57.101Z,23.13
2018-05-27T06:47:27.603Z,23.20
2018-05-27T06:49:57.759Z,23.22
2018-05-27T06:52:28.246Z,23.03
2018-05-27T06:54:58.316Z,23.42
2018-05-27T06:57:28.457Z,23.49
2018-05-27T06:59:58.569Z,23.42
2018-05-27T07:02:28.681Z,23.61
2018-05-27T07:04:58.854Z,23.51
2018-05-27T07:07:28.777Z,23.70
2018-05-27T07:09:58.845Z,23.58
2018-05-27T07:12:29.333Z,23.72
2018-05-27T07:14:59.439Z,23.83
2018-05-27T07:17:29.539Z,24.21
2018-05-27T07:19:59.624Z,24.10
2018-05-27T07:22:30.091Z,23.79
2018-05-27T07:25:00.163Z,23.99
2018-05-27T07:27:30.719Z,23.77
2018-05-27T07:30:00.814Z,24.09
2018-05-27T07:32:31.303Z,23.89
2018-05-27T07:35:01.400Z,23.85
2018-05-27T07:37:31.516Z,23.41
2018-05-27T07:40:01.626Z,23.58
2018-05-27T07:42:31.922Z,23.73
2018-05-27T07:45:02.685Z,23.59
2018-05-27T07:47:32.763Z,23.88
2018-05-27T07:50:03.275Z,23.93
2018-05-27T07:52:33.358Z,23.91
2018-05-27T07:55:03.431Z,23.89
2018-05-27T07:57:33.595Z,23.78
2018-05-27T08:00:03.354Z,23.80
2018-05-27T08:02:33.479Z,23.64
2018-05-27T08:05:03.654Z,23.37
2018-05-27T08:07:33.733Z,23.64
2018-05-27T08:10:03.609Z,23.79
2018-05-27T08:12:33.682Z,24.05
2018-05-27T08:15:03.553Z,24.09
2018-05-27T08:17:33.849Z,24.02
2018-05-27T08:20:03.760Z,24.23
2018-05-27T08:22:34.071Z,24.08
2018-05-27T08:25:04.226Z,24.20
2018-05-27T08:27:34.875Z,24.52
2018-05-27T08:30:04.318Z,24.64
2018-05-27T08:32:34.797Z,24.54
2018-05-27T08:35:04.667Z,24.56
2018-05-27T08:37:34.952Z,24.75
2018-05-27T08:40:05.028Z,24.92
2018-05-27T08:42:35.115Z,25.13
2018-05-27T08:45:05.785Z,25.17
2018-05-27T08:47:35.894Z,25.09
2018-05-27T08:50:05.655Z,25.41
2018-05-27T08:52:35.767Z,25.21
2018-05-27T08:55:05.520Z,25.45
2018-05-27T08:57:35.615Z,25.74
2018-05-27T09:00:06.123Z,25.53
2018-05-27T09:02:35.897Z,25.50
2018-05-27T09:05:05.412Z,25.40
2018-05-27T09:07:35.541Z,25.63
2018-05-27T09:10:05.325Z,25.81
2018-05-27T09:12:35.798Z,25.78
2018-05-27T09:15:06.158Z,26.03
2018-05-27T09:17:36.427Z,26.16
2018-05-27T09:20:06.513Z,26.46
2018-05-27T09:22:37.004Z,26.74
2018-05-27T09:25:07.174Z,27.21
2018-05-27T09:27:37.425Z,27.75
2018-05-27T09:30:07.511Z,28.05
2018-05-27T09:32:38.001Z,27.72
2018-05-27T09:35:08.117Z,27.34
2018-05-27T09:37:38.217Z,27.58
2018-05-27T09:40:08.293Z,28.05
2018-05-27T09:42:38.782Z,28.00
2018-05-27T09:45:08.979Z,28.15
2018-05-27T09:47:40.359Z,27.98
2018-05-27T09:50:10.439Z,27.55
2018-05-27T09:52:40.559Z,28.13
2018-05-27T09:55:10.719Z,28.33
2018-05-27T09:57:40.797Z,28.58
2018-05-27T10:00:10.561Z,28.77
2018-05-27T10:02:41.055Z,28.79
2018-05-27T10:05:11.173Z,28.55
2018-05-27T10:07:41.259Z,28.69
2018-05-27T10:10:11.365Z,27.94
2018-05-27T10:12:42.092Z,28.23
2018-05-27T10:15:12.333Z,28.50
2018-05-27T10:17:42.460Z,28.64
2018-05-27T10:20:12.543Z,28.21
2018-05-27T10:22:42.643Z,27.78
2018-05-27T10:25:12.738Z,28.39
2018-05-27T10:27:42.838Z,28.68
2018-05-27T10:30:12.915Z,28.71
2018-05-27T10:32:43.053Z,28.73
2018-05-27T10:35:12.996Z,28.73
2018-05-27T10:37:43.126Z,28.46
2018-05-27T10:40:12.924Z,28.64
2018-05-27T10:42:43.003Z,28.53
2018-05-27T10:45:13.111Z,28.69
2018-05-27T10:47:43.217Z,28.61
2018-05-27T10:50:13.294Z,28.96
2018-05-27T10:52:43.772Z,28.84
2018-05-27T10:55:13.321Z,28.96
2018-05-27T10:57:43.170Z,28.91
2018-05-27T11:00:13.248Z,29.00
2018-05-27T11:02:43.824Z,29.06
2018-05-27T11:05:14.314Z,29.01
2018-05-27T11:07:44.137Z,29.47
2018-05-27T11:10:13.946Z,29.55
2018-05-27T11:12:43.750Z,29.78
2018-05-27T11:15:13.543Z,29.31
2018-05-27T11:17:43.777Z,29.88
2018-05-27T11:20:13.602Z,29.74
2018-05-27T11:22:43.408Z,29.68
2018-05-27T11:25:13.212Z,29.73
2018-05-27T11:27:43.404Z,29.43
2018-05-27T11:30:13.232Z,29.19
2018-05-27T11:32:43.019Z,29.15
2018-05-27T11:35:12.827Z,29.23
2018-05-27T11:37:42.670Z,29.15
2018-05-27T11:40:12.489Z,29.15
2018-05-27T11:42:42.680Z,28.97
2018-05-27T11:45:12.488Z,29.06
2018-05-27T11:47:42.400Z,28.91
2018-05-27T11:50:12.218Z,29.06
2018-05-27T11:52:42.010Z,29.27
2018-05-27T11:55:11.824Z,29.46
2018-05-27T11:57:41.609Z,29.50
2018-05-27T12:00:11.404Z,29.91
2018-05-27T12:02:41.606Z,29.85
2018-05-27T12:05:11.421Z,30.06
2018-05-27T12:07:41.424Z,30.46
2018-05-27T12:10:11.243Z,30.71
2018-05-27T12:12:41.049Z,31.21
2018-05-27T12:15:11.034Z,31.53
2018-05-27T12:17:40.835Z,30.68
2018-05-27T12:20:10.648Z,30.35
2018-05-27T12:22:40.453Z,30.54
2018-05-27T12:25:10.250Z,30.53
2018-05-27T12:27:40.540Z,30.70
2018-05-27T12:30:10.356Z,31.16
2018-05-27T12:32:40.176Z,30.71
2018-05-27T12:35:10.028Z,29.16
2018-05-27T12:37:39.823Z,29.33
2018-05-27T12:40:10.028Z,29.70
2018-05-27T12:42:39.850Z,29.81
2018-05-27T12:45:10.022Z,29.87
2018-05-27T12:47:39.819Z,29.05
2018-05-27T12:50:09.935Z,28.56
2018-05-27T12:52:40.420Z,28.33
2018-05-27T12:55:10.522Z,28.11
2018-05-27T12:57:40.604Z,28.23
2018-05-27T13:00:11.097Z,28.94
2018-05-27T13:02:41.350Z,29.08
2018-05-27T13:05:12.120Z,28.79
2018-05-27T13:07:42.212Z,28.83
2018-05-27T13:10:12.706Z,29.04
2018-05-27T13:12:42.817Z,29.54
2018-05-27T13:15:12.628Z,29.42
2018-05-27T13:17:42.728Z,29.50
2018-05-27T13:20:12.532Z,28.39
2018-05-27T13:22:42.624Z,28.56
2018-05-27T13:25:12.969Z,28.48
2018-05-27T13:27:43.059Z,28.42
2018-05-27T13:30:13.562Z,28.64
2018-05-27T13:32:44.124Z,28.46
2018-05-27T13:35:14.615Z,27.98
2018-05-27T13:37:44.704Z,27.61
2018-05-27T13:40:14.977Z,27.55
2018-05-27T13:42:45.075Z,27.70
2018-05-27T13:45:15.156Z,27.91
2018-05-27T13:47:45.245Z,28.07
2018-05-27T13:50:15.322Z,28.26
2018-05-27T13:52:45.462Z,28.54
2018-05-27T13:55:15.596Z,28.21
2018-05-27T13:57:45.842Z,28.37
2018-05-27T14:00:16.332Z,28.81
2018-05-27T14:02:46.601Z,28.71
2018-05-27T14:05:16.731Z,28.54
2018-05-27T14:07:46.807Z,28.60
2018-05-27T14:10:16.915Z,28.48
2018-05-27T14:12:47.186Z,28.05
2018-05-27T14:15:17.291Z,27.77
2018-05-27T14:17:47.765Z,27.83
2018-05-27T14:20:17.858Z,27.69
2018-05-27T14:22:47.922Z,27.92
2018-05-27T14:25:18.030Z,28.04
2018-05-27T14:27:48.662Z,27.66
2018-05-27T14:30:18.545Z,27.77
2018-05-27T14:32:48.615Z,27.98
2018-05-27T14:35:18.726Z,27.81
2018-05-27T14:37:48.818Z,27.57
2018-05-27T14:40:18.893Z,27.37
2018-05-27T14:42:49.402Z,27.29
2018-05-27T14:45:19.523Z,27.27
2018-05-27T14:47:49.646Z,27.15
2018-05-27T14:50:19.873Z,27.13
2018-05-27T14:52:50.107Z,27.07
2018-05-27T14:55:20.593Z,27.12
2018-05-27T14:57:50.682Z,27.50
2018-05-27T15:00:20.793Z,27.59
2018-05-27T15:02:51.271Z,27.56
2018-05-27T15:05:21.191Z,27.78
2018-05-27T15:07:51.267Z,27.84
2018-05-27T15:10:21.357Z,28.07
2018-05-27T15:12:51.855Z,28.35
2018-05-27T15:15:21.981Z,28.47
2018-05-27T15:17:52.100Z,28.15
2018-05-27T15:20:22.296Z,27.97
2018-05-27T15:22:52.385Z,27.90
2018-05-27T15:25:22.470Z,28.15
2018-05-27T15:27:52.837Z,28.10
2018-05-27T15:30:23.017Z,28.22
2018-05-27T15:32:53.119Z,28.10
2018-05-27T15:35:23.225Z,27.78
2018-05-27T15:37:53.362Z,27.58
2018-05-27T15:40:23.613Z,27.61
2018-05-27T15:42:54.116Z,27.79
2018-05-27T15:45:24.203Z,28.00
2018-05-27T15:47:54.302Z,27.69
2018-05-27T15:50:24.419Z,27.66
2018-05-27T15:52:54.520Z,27.70
2018-05-27T15:55:24.599Z,27.43
2018-05-27T15:57:54.682Z,27.77
2018-05-27T16:00:24.771Z,27.75
2018-05-27T16:02:54.877Z,27.43
2018-05-27T16:05:24.972Z,27.20
2018-05-27T16:07:55.611Z,27.17
2018-05-27T16:10:25.681Z,27.33
2018-05-27T16:12:55.772Z,27.30
2018-05-27T16:15:25.846Z,27.10
2018-05-27T16:17:55.949Z,27.07
2018-05-27T16:20:26.153Z,27.47
2018-05-27T16:22:56.680Z,27.67
2018-05-27T16:25:26.953Z,27.97
2018-05-27T16:27:57.084Z,27.75
2018-05-27T16:30:27.173Z,27.36
2018-05-27T16:32:57.266Z,27.17
2018-05-27T16:35:27.914Z,26.97
2018-05-27T16:37:58.677Z,26.96
2018-05-27T16:40:28.767Z,26.98
2018-05-27T16:42:58.861Z,26.88
2018-05-27T16:45:29.356Z,26.66
2018-05-27T16:47:59.510Z,26.57
2018-05-27T16:50:30.009Z,26.55
2018-05-27T16:53:00.133Z,26.49
2018-05-27T16:55:30.413Z,26.33
2018-05-27T16:58:00.537Z,26.40
2018-05-27T17:00:30.620Z,26.47
2018-05-27T17:03:01.113Z,26.39
2018-05-27T17:05:31.214Z,26.38
2018-05-27T17:08:01.323Z,26.33
2018-05-27T17:10:31.422Z,26.29
2018-05-27T17:13:02.635Z,26.23
2018-05-27T17:15:32.913Z,26.27
2018-05-27T17:18:03.038Z,26.21
2018-05-27T17:20:33.836Z,25.96
2018-05-27T17:23:03.963Z,25.92
2018-05-27T17:25:34.447Z,25.87
2018-05-27T17:28:05.325Z,25.81
2018-05-27T17:30:35.443Z,25.75
2018-05-27T17:33:05.953Z,25.66
2018-05-27T17:35:36.031Z,25.68
2018-05-27T17:38:06.107Z,25.63
2018-05-27T17:40:36.197Z,25.39
2018-05-27T17:43:06.289Z,25.47
2018-05-27T17:45:36.386Z,25.36
2018-05-27T17:48:12.591Z,25.27
2018-05-27T17:50:42.723Z,25.25
2018-05-27T17:53:12.803Z,25.22
2018-05-27T17:55:42.889Z,25.23
2018-05-27T17:58:12.973Z,25.19
2018-05-27T18:00:43.071Z,25.05
2018-05-27T18:03:13.163Z,24.89
2018-05-27T18:05:44.353Z,24.83
2018-05-27T18:08:14.889Z,24.76
2018-05-27T18:10:44.971Z,24.71
2018-05-27T18:13:15.063Z,24.67
2018-05-27T18:15:45.159Z,24.60
2018-05-27T18:18:15.239Z,24.55
2018-05-27T18:20:45.319Z,24.44
2018-05-27T18:23:15.389Z,24.49
2018-05-27T18:25:45.459Z,24.50
2018-05-27T18:28:15.547Z,24.56
2018-05-27T18:30:45.803Z,24.57
2018-05-27T18:33:15.891Z,24.47
2018-05-27T18:35:45.955Z,24.37
2018-05-27T18:38:16.441Z,24.28
2018-05-27T18:40:46.499Z,24.30
2018-05-27T18:43:17.018Z,24.25
2018-05-27T18:45:47.186Z,24.25
2018-05-27T18:48:17.307Z,24.07
2018-05-27T18:50:47.557Z,24.01
2018-05-27T18:53:17.807Z,23.89
2018-05-27T18:55:48.284Z,23.87
2018-05-27T18:58:18.366Z,23.81
2018-05-27T19:00:48.847Z,23.83
2018-05-27T19:03:19.209Z,23.86
2018-05-27T19:05:49.860Z,23.82
2018-05-27T19:08:20.250Z,23.76
2018-05-27T19:10:50.328Z,23.71
2018-05-27T19:13:20.424Z,23.66
2018-05-27T19:15:51.187Z,23.61
2018-05-27T19:18:21.304Z,23.58
2018-05-27T19:20:51.392Z,23.51
2018-05-27T19:23:21.879Z,23.55
2018-05-27T19:25:52.306Z,23.49
2018-05-27T19:28:22.441Z,23.45
2018-05-27T19:30:52.525Z,23.49
2018-05-27T19:33:22.606Z,23.62
2018-05-27T19:35:53.394Z,23.59
2018-05-27T19:38:23.491Z,23.66
2018-05-27T19:40:53.595Z,23.59
2018-05-27T19:43:23.696Z,23.44
2018-05-27T19:45:54.279Z,23.38
2018-05-27T19:48:24.389Z,23.33
2018-05-27T19:50:54.464Z,23.29
2018-05-27T19:53:24.957Z,23.26
2018-05-27T19:55:55.067Z,23.33
2018-05-27T19:58:25.165Z,23.32
2018-05-27T20:00:55.295Z,23.39
2018-05-27T20:03:25.532Z,23.38
2018-05-27T20:05:55.625Z,23.51
2018-05-27T20:08:25.728Z,23.44
2018-05-27T20:10:55.832Z,23.43
2018-05-27T20:13:26.374Z,23.34
2018-05-27T20:15:56.853Z,23.23
2018-05-27T20:18:26.951Z,23.18
2018-05-27T20:20:57.045Z,23.03
2018-05-27T20:23:27.546Z,23.15
2018-05-27T20:25:57.641Z,23.04
2018-05-27T20:28:27.734Z,23.05
2018-05-27T20:30:57.816Z,23.00
2018-05-27T20:33:27.949Z,22.95
2018-05-27T20:35:58.437Z,22.89
2018-05-27T20:38:28.535Z,22.81
2018-05-27T20:40:58.681Z,22.81
2018-05-27T20:43:28.746Z,22.86
2018-05-27T20:45:58.827Z,22.74
2018-05-27T20:48:28.925Z,22.67
2018-05-27T20:50:59.039Z,22.70
2018-05-27T20:53:29.181Z,22.62
2018-05-27T20:55:59.336Z,22.47
2018-05-27T20:58:29.832Z,22.35
2018-05-27T21:00:59.925Z,22.16
2018-05-27T21:03:30.051Z,22.13
2018-05-27T21:06:00.145Z,22.00
2018-05-27T21:08:30.307Z,21.96
2018-05-27T21:11:01.660Z,22.00
2018-05-27T21:13:31.746Z,21.97
2018-05-27T21:16:01.901Z,21.99
2018-05-27T21:18:31.989Z,21.99
2018-05-27T21:21:02.271Z,21.96
2018-05-27T21:23:32.759Z,22.00
2018-05-27T21:26:02.828Z,21.99
2018-05-27T21:28:33.316Z,22.03
2018-05-27T21:31:03.411Z,22.03
2018-05-27T21:33:33.491Z,22.07
2018-05-27T21:36:03.955Z,22.16
2018-05-27T21:38:34.043Z,22.10
2018-05-27T21:41:04.521Z,22.11
2018-05-27T21:43:34.589Z,21.98
2018-05-27T21:46:05.070Z,22.00
2018-05-27T21:48:35.352Z,21.99
2018-05-27T21:51:05.445Z,21.92
2018-05-27T21:53:35.915Z,21.85
2018-05-27T21:56:05.984Z,21.79
2018-05-27T21:58:36.290Z,21.81
2018-05-27T22:01:06.914Z,21.73
2018-05-27T22:03:36.986Z,21.81
2018-05-27T22:06:07.104Z,21.72
2018-05-27T22:08:37.566Z,21.75
2018-05-27T22:11:07.642Z,21.67
2018-05-27T22:13:37.808Z,21.62
2018-05-27T22:16:07.921Z,21.68
2018-05-27T22:18:38.008Z,21.89
2018-05-27T22:21:08.101Z,21.92
2018-05-27T22:23:38.205Z,21.89
2018-05-27T22:26:08.405Z,21.75
2018-05-27T22:28:38.607Z,21.73
2018-05-27T22:31:08.728Z,21.57
2018-05-27T22:33:38.817Z,21.45
2018-05-27T22:36:09.061Z,21.37
2018-05-27T22:38:39.146Z,21.24
2018-05-27T22:41:09.228Z,21.25
2018-05-27T22:43:40.030Z,21.28
2018-05-27T22:46:10.510Z,21.27
2018-05-27T22:48:40.624Z,21.13
2018-05-27T22:51:10.722Z,21.20
2018-05-27T22:53:40.881Z,21.17
2018-05-27T22:56:10.970Z,21.23
2018-05-27T22:58:41.264Z,21.38
2018-05-27T23:01:11.042Z,21.36
2018-05-27T23:03:41.358Z,21.34
2018-05-27T23:06:11.442Z,21.30
2018-05-27T23:08:41.592Z,21.33
2018-05-27T23:11:11.683Z,21.21
2018-05-27T23:13:41.974Z,21.14
2018-05-27T23:16:12.462Z,21.06
2018-05-27T23:18:42.572Z,21.00
2018-05-27T23:21:12.724Z,20.87
2018-05-27T23:23:42.814Z,20.82
2018-05-27T23:26:12.950Z,20.69
2018-05-27T23:28:43.028Z,20.77
2018-05-27T23:31:13.122Z,20.68
2018-05-27T23:33:43.672Z,20.65
2018-05-27T23:36:13.752Z,20.68
2018-05-27T23:38:43.852Z,20.77
2018-05-27T23:41:13.950Z,20.84
2018-05-27T23:43:44.044Z,20.73
2018-05-27T23:46:14.148Z,20.85
2018-05-27T23:48:44.718Z,20.87
2018-05-27T23:51:14.808Z,20.94
2018-05-27T23:53:45.288Z,20.80
2018-05-27T23:56:15.710Z,20.73
2018-05-27T23:58:45.806Z,20.63
